createdAt,value
2019-04-01T00:00:37.549Z,7.00
2019-04-01T00:05:33.342Z,7.03
2019-04-01T00:10:28.955Z,7.13
2019-04-01T00:15:24.687Z,6.77
2019-04-01T00:20:20.303Z,7.33
2019-04-01T00:25:15.991Z,8.17
2019-04-01T00:30:12.053Z,8.30
2019-04-01T00:35:07.865Z,7.60
2019-04-01T00:40:03.557Z,7.40
2019-04-01T00:45:00.790Z,6.87
2019-04-01T00:49:56.466Z,7.73
2019-04-01T00:54:52.119Z,7.57
2019-04-01T00:59:47.791Z,7.63
2019-04-01T01:04:43.467Z,7.53
2019-04-01T01:09:39.118Z,7.47
2019-04-01T01:14:35.953Z,7.23
2019-04-01T01:19:50.616Z,6.70
2019-04-01T01:24:46.288Z,7.03
2019-04-01T01:29:41.955Z,7.47
2019-04-01T01:34:37.696Z,7.43
2019-04-01T01:39:33.403Z,7.27
2019-04-01T01:44:29.115Z,7.53
2019-04-01T01:49:24.861Z,7.10
2019-04-01T01:54:20.568Z,7.70
2019-04-01T01:59:16.276Z,7.70
2019-04-01T02:04:11.945Z,7.20
2019-04-01T02:09:08.023Z,7.50
2019-04-01T02:14:03.696Z,7.27
2019-04-01T02:18:59.439Z,7.30
2019-04-01T02:23:55.248Z,7.80
2019-04-01T02:28:50.932Z,7.40
2019-04-01T02:33:46.664Z,7.47
2019-04-01T02:38:42.326Z,7.67
2019-04-01T02:43:38.005Z,7.60
2019-04-01T02:48:33.719Z,7.83
2019-04-01T02:53:29.429Z,8.10
2019-04-01T02:58:25.066Z,7.90
2019-04-01T03:03:20.771Z,8.03
2019-04-01T03:08:17.886Z,8.10
2019-04-01T03:13:13.553Z,7.80
2019-04-01T03:18:09.254Z,7.97
2019-04-01T03:23:04.973Z,8.27
2019-04-01T03:28:00.690Z,9.60
2019-04-01T03:32:56.404Z,8.80
2019-04-01T03:37:52.165Z,8.90
2019-04-01T03:42:50.333Z,8.57
2019-04-01T03:47:46.441Z,8.87
2019-04-01T03:52:42.137Z,9.87
2019-04-01T03:57:37.865Z,9.80
2019-04-01T04:02:33.619Z,9.40
2019-04-01T04:07:29.329Z,9.17
2019-04-01T04:12:25.109Z,8.77
2019-04-01T04:17:20.810Z,9.70
2019-04-01T04:22:16.709Z,9.73
2019-04-01T04:27:12.475Z,9.67
2019-04-01T04:32:08.274Z,9.50
2019-04-01T04:37:03.909Z,9.33
2019-04-01T04:42:00.225Z,9.73
2019-04-01T04:46:55.882Z,9.70
2019-04-01T04:51:51.592Z,9.60
2019-04-01T04:56:47.262Z,9.73
2019-04-01T05:01:42.951Z,9.87
2019-04-01T05:06:38.624Z,10.43
2019-04-01T05:11:34.297Z,10.33
2019-04-01T05:16:29.953Z,9.90
2019-04-01T05:21:26.506Z,10.27
2019-04-01T05:26:23.681Z,10.20
2019-04-01T05:31:23.589Z,10.23
2019-04-01T05:36:20.043Z,10.23
2019-04-01T05:41:16.686Z,10.73
2019-04-01T05:46:13.498Z,12.07
2019-04-01T05:51:09.179Z,11.63
2019-04-01T05:56:04.867Z,11.57
2019-04-01T06:01:10.232Z,10.90
2019-04-01T06:06:06.106Z,11.43
2019-04-01T06:11:02.520Z,12.30
2019-04-01T06:16:00.112Z,12.27
2019-04-01T06:20:56.195Z,16.23
2019-04-01T06:25:51.889Z,20.90
2019-04-01T06:30:47.812Z,15.83
2019-04-01T06:35:43.697Z,16.77
2019-04-01T06:40:39.366Z,17.63
2019-04-01T06:45:35.049Z,16.33
2019-04-01T06:50:33.528Z,15.73
2019-04-01T06:55:29.240Z,15.73
2019-04-01T07:00:24.916Z,16.47
2019-04-01T07:05:21.730Z,16.60
2019-04-01T07:10:17.538Z,18.50
2019-04-01T07:15:13.501Z,17.53
2019-04-01T07:20:09.325Z,17.17
2019-04-01T07:25:05.724Z,16.27
2019-04-01T07:30:01.403Z,17.23
2019-04-01T07:34:58.445Z,16.50
2019-04-01T07:39:54.458Z,16.97
2019-04-01T07:44:50.613Z,16.97
2019-04-01T07:49:46.341Z,16.33
2019-04-01T07:54:43.488Z,14.53
2019-04-01T07:59:39.301Z,15.07
2019-04-01T08:04:34.977Z,15.07
2019-04-01T08:09:30.956Z,15.73
2019-04-01T08:14:26.768Z,14.40
2019-04-01T08:19:22.505Z,12.50
2019-04-01T08:24:19.025Z,11.97
2019-04-01T08:29:29.142Z,10.87
2019-04-01T08:34:12.037Z,11.83
2019-04-01T08:39:13.994Z,11.43
2019-04-01T08:44:09.700Z,10.73
2019-04-01T08:49:07.924Z,10.33
2019-04-01T08:54:02.693Z,11.27
2019-04-01T08:59:11.694Z,12.70
2019-04-01T09:04:07.373Z,12.10
2019-04-01T09:09:05.119Z,12.47
2019-04-01T09:14:00.980Z,11.30
2019-04-01T09:18:56.730Z,11.00
2019-04-01T09:23:52.465Z,11.20
2019-04-01T09:28:48.199Z,11.47
2019-04-01T09:33:45.019Z,11.67
2019-04-01T09:38:40.881Z,11.50
2019-04-01T09:43:36.616Z,12.27
2019-04-01T09:48:32.396Z,11.63
2019-04-01T09:53:28.058Z,12.63
2019-04-01T09:58:23.777Z,12.03
2019-04-01T10:03:19.501Z,12.73
2019-04-01T10:08:15.182Z,12.03
2019-04-01T10:13:10.886Z,13.27
2019-04-01T10:18:06.734Z,12.93
2019-04-01T10:23:05.115Z,12.43
2019-04-01T10:28:00.813Z,13.13
2019-04-01T10:32:56.509Z,13.57
2019-04-01T10:37:52.181Z,14.10
2019-04-01T10:42:48.942Z,15.10
2019-04-01T10:47:44.670Z,14.30
2019-04-01T10:52:44.077Z,14.20
2019-04-01T10:57:39.061Z,14.93
2019-04-01T11:02:34.768Z,12.30
2019-04-01T11:07:30.880Z,14.50
2019-04-01T11:12:26.528Z,14.10
2019-04-01T11:17:22.205Z,14.67
2019-04-01T11:22:18.933Z,13.73
2019-04-01T11:27:14.629Z,11.10
2019-04-01T11:32:13.246Z,9.47
2019-04-01T11:37:08.501Z,10.27
2019-04-01T11:42:04.467Z,11.67
2019-04-01T11:47:00.153Z,11.50
2019-04-01T11:51:55.858Z,10.13
2019-04-01T11:56:51.648Z,13.23
2019-04-01T12:01:50.123Z,13.17
2019-04-01T12:06:45.821Z,12.90
2019-04-01T12:11:41.568Z,11.27
2019-04-01T12:16:37.763Z,11.90
2019-04-01T12:21:33.634Z,13.30
2019-04-01T12:26:29.366Z,12.30
2019-04-01T12:31:25.197Z,13.37
2019-04-01T12:36:20.895Z,12.30
2019-04-01T12:41:16.799Z,12.93
2019-04-01T12:46:14.230Z,12.37
2019-04-01T12:51:10.036Z,11.53
2019-04-01T12:56:07.034Z,11.73
2019-04-01T13:01:03.083Z,11.73
2019-04-01T13:05:58.781Z,11.73
2019-04-01T13:10:56.642Z,10.80
2019-04-01T13:15:52.529Z,10.37
2019-04-01T13:20:51.502Z,10.87
2019-04-01T13:25:45.514Z,10.07
2019-04-01T13:30:41.362Z,10.60
2019-04-01T13:35:39.844Z,10.20
2019-04-01T13:40:35.723Z,10.87
2019-04-01T13:45:31.932Z,11.57
2019-04-01T13:50:30.214Z,11.30
2019-04-01T13:55:25.948Z,11.90
2019-04-01T14:00:25.239Z,10.97
2019-04-01T14:05:19.304Z,11.07
2019-04-01T14:10:15.368Z,10.32
2019-04-01T14:15:11.504Z,9.40
2019-04-01T14:20:08.047Z,10.40
2019-04-01T14:25:07.149Z,10.60
2019-04-01T14:30:01.447Z,10.67
2019-04-01T14:34:57.191Z,10.60
2019-04-01T14:39:55.420Z,10.30
2019-04-01T14:44:59.421Z,11.87
2019-04-01T14:49:55.184Z,11.00
2019-04-01T14:54:51.055Z,10.70
2019-04-01T14:59:46.781Z,10.53
2019-04-01T15:04:44.141Z,11.07
2019-04-01T15:09:39.870Z,11.67
2019-04-01T15:14:35.624Z,11.40
2019-04-01T15:19:33.602Z,11.13
2019-04-01T15:24:29.359Z,11.60
2019-04-01T15:29:25.200Z,11.03
2019-04-01T15:34:20.914Z,11.80
2019-04-01T15:39:17.075Z,11.43
2019-04-01T15:44:12.829Z,11.83
2019-04-01T15:49:11.297Z,12.73
2019-04-01T15:54:06.198Z,12.57
2019-04-01T15:59:01.934Z,12.17
2019-04-01T16:03:58.015Z,12.83
2019-04-01T16:08:54.022Z,13.87
2019-04-01T16:13:50.039Z,12.50
2019-04-01T16:18:46.133Z,12.83
2019-04-01T16:23:43.458Z,12.90
2019-04-01T16:28:39.261Z,13.17
2019-04-01T16:33:35.059Z,12.70
2019-04-01T16:38:30.801Z,13.77
2019-04-01T16:43:26.604Z,11.87
2019-04-01T16:48:23.923Z,11.90
2019-04-01T16:53:19.708Z,13.20
2019-04-01T16:58:15.561Z,12.37
2019-04-01T17:03:13.519Z,12.70
2019-04-01T17:08:10.138Z,12.63
2019-04-01T17:13:08.838Z,12.87
2019-04-01T17:18:09.765Z,12.20
2019-04-01T17:23:06.605Z,11.70
2019-04-01T17:28:02.406Z,12.53
2019-04-01T17:32:59.171Z,12.90
2019-04-01T17:37:58.573Z,13.50
2019-04-01T17:42:54.346Z,13.70
2019-04-01T17:47:50.135Z,13.83
2019-04-01T17:52:45.888Z,15.30
2019-04-01T17:57:41.635Z,15.20
2019-04-01T18:02:37.374Z,14.00
2019-04-01T18:07:33.153Z,16.40
2019-04-01T18:12:28.939Z,16.33
2019-04-01T18:17:26.377Z,16.50
2019-04-01T18:22:22.181Z,18.33
2019-04-01T18:27:18.836Z,18.13
2019-04-01T18:32:14.832Z,17.30
2019-04-01T18:37:10.630Z,16.30
2019-04-01T18:42:06.463Z,18.50
2019-04-01T18:47:03.990Z,18.60
2019-04-01T18:52:00.031Z,20.57
2019-04-01T18:56:55.747Z,22.57
2019-04-01T19:01:51.701Z,23.13
2019-04-01T19:06:49.853Z,21.23
2019-04-01T19:11:44.914Z,22.77
2019-04-01T19:16:40.749Z,21.33
2019-04-01T19:21:37.170Z,20.73
2019-04-01T19:26:35.683Z,25.43
2019-04-01T19:31:31.731Z,24.40
2019-04-01T19:36:27.663Z,23.40
2019-04-01T19:41:23.534Z,23.00
2019-04-01T19:46:21.374Z,22.90
2019-04-01T19:51:18.125Z,22.67
2019-04-01T19:56:13.888Z,22.17
2019-04-01T20:01:09.589Z,25.17
2019-04-01T20:06:07.446Z,30.13
2019-04-01T20:11:02.905Z,32.93
2019-04-01T20:15:58.605Z,29.80
2019-04-01T20:20:54.412Z,24.10
2019-04-01T20:25:50.237Z,22.77
2019-04-01T20:30:48.509Z,24.10
2019-04-01T20:35:44.250Z,24.87
2019-04-01T20:40:40.496Z,23.17
2019-04-01T20:45:37.620Z,20.30
2019-04-01T20:50:33.411Z,18.53
2019-04-01T20:55:48.291Z,18.47
2019-04-01T21:00:44.418Z,19.60
2019-04-01T21:05:40.334Z,17.70
2019-04-01T21:10:36.074Z,16.80
2019-04-01T21:15:31.807Z,16.70
2019-04-01T21:20:28.653Z,17.30
2019-04-01T21:25:24.306Z,17.03
2019-04-01T21:30:20.540Z,16.40
2019-04-01T21:35:16.708Z,15.53
2019-04-01T21:40:12.722Z,14.83
2019-04-01T21:45:08.930Z,14.80
2019-04-01T21:50:06.242Z,15.57
2019-04-01T21:55:02.187Z,16.37
2019-04-01T21:59:57.857Z,16.60
2019-04-01T22:04:53.552Z,17.63
2019-04-01T22:09:49.316Z,16.10
2019-04-01T22:14:46.114Z,16.73
2019-04-01T22:19:41.794Z,16.00
2019-04-01T22:24:37.481Z,16.73
2019-04-01T22:29:33.198Z,17.53
2019-04-01T22:34:27.076Z,17.83
2019-04-01T22:39:27.348Z,17.87
2019-04-01T22:44:20.056Z,15.90
2019-04-01T22:49:15.742Z,16.53
2019-04-01T22:54:11.451Z,15.83
2019-04-01T22:59:07.125Z,15.73
2019-04-01T23:04:02.793Z,16.60
2019-04-01T23:08:59.130Z,15.40
2019-04-01T23:13:55.752Z,16.57
2019-04-01T23:18:51.484Z,16.33
2019-04-01T23:23:47.161Z,16.10
2019-04-01T23:28:42.813Z,17.53
2019-04-01T23:33:38.542Z,16.33
2019-04-01T23:38:35.213Z,16.27
2019-04-01T23:43:32.916Z,16.97
2019-04-01T23:48:29.019Z,15.57
2019-04-01T23:53:24.695Z,15.80
2019-04-01T23:58:22.232Z,15.30
